Time;durP1;ratioP1;P1;durP2;ratioP2;P2;SDS_P1;SDS_P2;PMS_P1;PMS_P2;Temp;Humidity;BMP_temperature;BMP_pressure;BME280_temperature;BME280_humidity;BME280_pressure;Samples;Min_cycle;Max_cycle;Signal;HPM_P1;HPM_P2
2022/12/22 03:26:40;;;;;;;1.30;0.70;;;11.90;99.90;;;;;;5009855;28;20178;-75
2022/12/22 03:29:06;;;;;;;1.30;0.73;;;11.90;99.90;;;;;;5011465;28;20182;-75
2022/12/22 03:31:32;;;;;;;1.20;0.80;;;11.90;99.90;;;;;;5010469;28;20174;-75
2022/12/22 03:33:57;;;;;;;2.00;0.70;;;12.00;99.90;;;;;;5010428;28;20174;-74
2022/12/22 03:36:23;;;;;;;2.07;0.80;;;11.90;99.90;;;;;;5011180;28;20541;-75
2022/12/22 03:38:48;;;;;;;1.10;0.50;;;11.90;99.90;;;;;;5010157;28;20217;-75
2022/12/22 03:46:43;;;;;;;1.58;0.60;;;11.90;99.90;;;;;;5010815;28;20605;-75
2022/12/22 03:49:08;;;;;;;1.10;0.60;;;11.90;99.90;;;;;;5011137;28;20214;-75
2022/12/22 03:51:43;;;;;;;2.37;0.90;;;11.90;99.90;;;;;;5009118;28;20178;-75
2022/12/22 03:54:10;;;;;;;2.80;0.70;;;11.90;99.90;;;;;;5009789;28;20189;-75
2022/12/22 03:56:36;;;;;;;1.20;0.60;;;11.90;99.90;;;;;;5010603;28;20732;-75
2022/12/22 03:59:03;;;;;;;1.30;0.70;;;11.90;99.90;;;;;;5009300;28;20202;-75
2022/12/22 04:01:29;;;;;;;1.30;0.73;;;11.80;99.90;;;;;;5010215;28;20636;-74
2022/12/22 04:03:54;;;;;;;1.75;0.70;;;11.90;99.90;;;;;;5010875;28;20708;-75
2022/12/22 04:06:20;;;;;;;1.50;0.70;;;11.80;99.90;;;;;;5009846;28;20170;-75
2022/12/22 04:08:46;;;;;;;1.20;0.60;;;11.80;99.90;;;;;;5009228;28;20213;-75
2022/12/22 04:13:58;;;;;;;1.20;0.60;;;11.90;99.90;;;;;;5009250;28;20182;-76
2022/12/22 04:16:24;;;;;;;1.20;0.60;;;11.90;99.90;;;;;;5010850;28;20170;-74
2022/12/22 04:18:50;;;;;;;1.38;0.80;;;11.90;99.90;;;;;;5006029;28;20241;-75
2022/12/22 04:21:16;;;;;;;1.73;0.90;;;11.90;99.90;;;;;;4988543;28;20199;-75
2022/12/22 04:23:42;;;;;;;1.63;0.70;;;11.90;99.90;;;;;;4991213;28;20543;-74
2022/12/22 04:26:08;;;;;;;1.87;0.90;;;11.90;99.90;;;;;;4989283;28;20175;-74
2022/12/22 04:28:33;;;;;;;1.40;0.85;;;11.90;99.90;;;;;;4990707;28;20669;-75
2022/12/22 04:30:59;;;;;;;1.60;0.90;;;12.00;99.90;;;;;;4988868;28;20293;-74
2022/12/22 04:33:25;;;;;;;2.17;0.83;;;12.00;99.90;;;;;;4990505;28;20181;-74
2022/12/22 04:35:50;;;;;;;1.87;0.80;;;12.00;99.90;;;;;;4973247;28;20185;-75
2022/12/22 04:38:16;;;;;;;2.60;0.77;;;12.10;99.90;;;;;;5006012;28;20234;-75
2022/12/22 04:40:42;;;;;;;1.37;0.90;;;12.10;99.90;;;;;;4988910;28;20655;-75
2022/12/22 04:43:08;;;;;;;1.50;0.90;;;12.10;99.90;;;;;;4990458;28;20171;-74
2022/12/22 04:45:34;;;;;;;1.30;0.60;;;12.20;99.90;;;;;;4990784;28;20237;-75
2022/12/22 04:47:59;;;;;;;1.40;0.60;;;12.30;99.90;;;;;;5001361;28;20189;-74
2022/12/22 04:50:25;;;;;;;2.17;0.60;;;12.30;99.90;;;;;;5008311;28;20213;-74
2022/12/22 04:52:51;;;;;;;2.17;0.50;;;12.30;99.90;;;;;;5008215;28;20178;-74
2022/12/22 04:55:16;;;;;;;2.80;0.60;;;12.30;99.90;;;;;;5005914;28;20545;-74
2022/12/22 04:57:42;;;;;;;1.60;0.53;;;12.30;99.90;;;;;;4995435;28;20677;-74
2022/12/22 05:00:09;;;;;;;4.90;0.50;;;12.30;99.90;;;;;;4988683;28;20199;-74
2022/12/22 05:02:34;;;;;;;1.20;0.50;;;12.30;99.90;;;;;;5004710;28;20176;-74
2022/12/22 05:05:00;;;;;;;1.43;0.87;;;12.30;99.90;;;;;;5008389;28;20174;-74
2022/12/22 05:07:26;;;;;;;1.30;0.60;;;12.30;99.90;;;;;;5008557;28;20265;-74
2022/12/22 05:09:52;;;;;;;5.73;0.60;;;12.30;99.90;;;;;;5007553;28;21228;-74
2022/12/22 05:15:02;;;;;;;1.40;0.50;;;12.30;99.90;;;;;;5008419;28;20668;-74
2022/12/22 05:17:28;;;;;;;2.00;0.60;;;12.40;99.90;;;;;;5008526;28;20604;-74
2022/12/22 05:19:54;;;;;;;1.60;0.60;;;12.40;99.90;;;;;;5007606;28;20194;-74
2022/12/22 05:22:19;;;;;;;1.30;0.63;;;12.40;99.90;;;;;;5009314;28;20173;-73
2022/12/22 05:24:45;;;;;;;1.40;0.60;;;12.40;99.90;;;;;;5008157;28;20181;-73
2022/12/22 05:27:12;;;;;;;1.30;0.60;;;12.50;99.90;;;;;;4991929;28;20178;-73
2022/12/22 05:29:37;;;;;;;1.27;0.60;;;12.50;99.90;;;;;;5008857;28;20217;-73
2022/12/22 05:32:03;;;;;;;1.20;0.60;;;12.50;99.90;;;;;;5007730;28;20272;-75
2022/12/22 05:34:29;;;;;;;1.40;0.60;;;12.60;99.90;;;;;;5008872;28;20189;-75
2022/12/22 05:36:54;;;;;;;2.67;0.80;;;12.60;99.90;;;;;;5009166;28;20586;-75
2022/12/22 05:39:20;;;;;;;1.70;0.70;;;12.60;99.90;;;;;;5011007;28;20226;-75
2022/12/22 05:41:46;;;;;;;2.77;0.70;;;12.60;99.90;;;;;;5009784;28;20159;-75
2022/12/22 05:44:11;;;;;;;2.00;1.00;;;12.50;99.90;;;;;;5009928;28;20710;-75
2022/12/22 05:46:37;;;;;;;2.13;0.80;;;12.50;99.90;;;;;;5009280;28;20205;-75
2022/12/22 05:49:03;;;;;;;1.70;1.00;;;12.50;99.90;;;;;;5011154;28;20177;-76
2022/12/22 05:51:28;;;;;;;2.17;0.80;;;12.50;99.90;;;;;;4992482;28;20753;-76
2022/12/22 05:53:54;;;;;;;3.00;1.50;;;12.50;99.90;;;;;;5009075;28;20188;-76
2022/12/22 05:56:20;;;;;;;1.70;0.80;;;12.50;99.90;;;;;;5011046;28;20193;-76
2022/12/22 05:58:45;;;;;;;2.13;0.90;;;12.50;99.90;;;;;;4992912;28;20233;-75
2022/12/22 06:01:11;;;;;;;2.47;1.20;;;12.50;99.90;;;;;;5008938;28;20260;-75
2022/12/22 06:03:37;;;;;;;2.00;1.10;;;12.50;99.90;;;;;;5009365;28;20205;-76
2022/12/22 06:06:02;;;;;;;1.40;1.10;;;12.50;99.90;;;;;;5009751;28;20265;-76
2022/12/22 06:08:28;;;;;;;2.60;1.03;;;12.50;99.90;;;;;;5012652;28;20197;-76
2022/12/22 06:10:58;;;;;;;1.80;1.10;;;12.50;99.90;;;;;;5010191;28;20667;-76
2022/12/22 06:13:24;;;;;;;2.53;1.20;;;12.50;99.90;;;;;;5010615;28;20595;-76
2022/12/22 06:15:50;;;;;;;1.70;1.00;;;12.60;99.90;;;;;;5009228;28;20591;-76
2022/12/22 06:18:16;;;;;;;1.90;1.30;;;12.60;99.90;;;;;;5009841;28;20656;-75
2022/12/22 06:20:41;;;;;;;2.87;1.10;;;12.60;99.90;;;;;;5008317;28;20541;-75
2022/12/22 06:23:07;;;;;;;2.13;1.50;;;12.60;99.90;;;;;;5010256;28;20655;-75
2022/12/22 06:25:33;;;;;;;1.60;1.10;;;12.60;99.90;;;;;;5010459;28;20344;-75
2022/12/22 06:27:59;;;;;;;1.90;1.30;;;12.60;99.90;;;;;;5010747;28;20174;-75
2022/12/22 06:30:25;;;;;;;3.50;1.60;;;12.60;99.90;;;;;;5010192;28;20186;-75
2022/12/22 06:32:50;;;;;;;2.03;1.40;;;12.70;99.90;;;;;;5010779;28;20189;-75
2022/12/22 06:35:16;;;;;;;2.10;1.30;;;12.70;99.90;;;;;;5013626;28;20182;-75
2022/12/22 06:37:42;;;;;;;2.80;1.33;;;12.70;99.90;;;;;;5016338;28;20182;-75
2022/12/22 06:40:08;;;;;;;2.30;1.50;;;12.70;99.90;;;;;;5015493;28;20186;-75
2022/12/22 06:45:18;;;;;;;2.50;1.90;;;12.70;99.90;;;;;;5012407;28;20637;-74
2022/12/22 06:47:43;;;;;;;2.50;2.27;;;12.70;99.90;;;;;;4996568;28;20213;-75
2022/12/22 06:50:09;;;;;;;2.33;2.13;;;12.70;99.90;;;;;;5015123;28;20217;-75
2022/12/22 06:52:35;;;;;;;2.63;2.40;;;12.70;99.90;;;;;;5007671;28;20185;-75
2022/12/22 06:55:01;;;;;;;2.03;1.83;;;12.80;99.90;;;;;;5031494;28;20173;-75
2022/12/22 06:57:28;;;;;;;2.83;2.63;;;12.70;99.90;;;;;;5025153;28;20580;-75
2022/12/22 06:59:53;;;;;;;4.03;2.65;;;12.70;99.90;;;;;;5032419;28;20705;-75
2022/12/22 07:02:19;;;;;;;3.53;3.30;;;12.70;99.90;;;;;;5011721;28;20170;-76
2022/12/22 07:04:45;;;;;;;3.20;2.90;;;12.70;99.90;;;;;;5016240;28;20662;-75
2022/12/22 07:07:11;;;;;;;3.50;2.77;;;12.70;99.90;;;;;;5014470;28;20949;-74
2022/12/22 07:09:36;;;;;;;3.45;3.15;;;12.70;99.90;;;;;;5014563;28;20236;-75
2022/12/22 07:12:03;;;;;;;3.73;2.80;;;12.70;99.90;;;;;;5012570;28;20618;-75
2022/12/22 07:14:28;;;;;;;2.90;2.65;;;12.70;99.90;;;;;;5013433;28;20277;-75
2022/12/22 07:16:54;;;;;;;3.90;3.27;;;12.70;99.90;;;;;;5012456;28;20265;-74
2022/12/22 07:19:20;;;;;;;3.80;3.40;;;12.60;99.90;;;;;;4995917;28;20647;-75
2022/12/22 07:21:47;;;;;;;5.20;4.80;;;12.60;99.90;;;;;;5013662;28;20584;-75
2022/12/22 07:24:15;;;;;;;4.30;3.90;;;12.60;99.90;;;;;;5015025;28;20586;-74
2022/12/22 07:26:40;;;;;;;3.83;3.45;;;12.60;99.90;;;;;;4995114;28;20659;-74
2022/12/22 07:29:06;;;;;;;5.03;3.93;;;12.60;99.90;;;;;;5013293;28;20177;-74
2022/12/22 07:31:32;;;;;;;4.33;3.93;;;12.60;99.90;;;;;;5012264;28;20182;-75
2022/12/22 07:33:58;;;;;;;4.57;4.17;;;12.60;99.90;;;;;;5007943;28;20179;-75
2022/12/22 07:36:23;;;;;;;5.17;3.60;;;12.60;99.90;;;;;;4992462;28;20178;-75
2022/12/22 07:38:50;;;;;;;4.07;3.67;;;12.50;99.90;;;;;;4993043;28;20187;-75
2022/12/22 07:44:05;;;;;;;5.38;4.15;;;12.50;99.90;;;;;;4992929;28;20171;-75
2022/12/22 07:46:35;;;;;;;5.00;4.18;;;12.50;99.90;;;;;;4976633;28;20171;-75
2022/12/22 07:51:46;;;;;;;5.70;4.75;;;12.50;99.90;;;;;;5005876;28;20182;-75
2022/12/22 07:54:14;;;;;;;4.77;4.07;;;12.60;99.90;;;;;;5012008;28;20185;-75
2022/12/22 07:56:40;;;;;;;8.05;5.55;;;12.60;99.90;;;;;;5012384;28;20985;-75
2022/12/22 07:59:07;;;;;;;8.23;4.57;;;12.60;99.90;;;;;;5011335;28;20288;-75
2022/12/22 08:01:33;;;;;;;6.25;4.20;;;12.60;99.90;;;;;;5010733;28;20174;-75
2022/12/22 08:03:59;;;;;;;5.70;5.10;;;12.60;99.90;;;;;;5011229;28;20178;-75
2022/12/22 08:06:25;;;;;;;5.00;4.40;;;12.60;99.90;;;;;;5010591;28;20538;-75
2022/12/22 08:08:51;;;;;;;5.70;5.05;;;12.60;99.90;;;;;;5011248;28;21378;-75
2022/12/22 08:11:17;;;;;;;4.93;4.30;;;12.70;99.90;;;;;;5010543;28;20534;-75
2022/12/22 08:13:43;;;;;;;5.65;4.40;;;12.70;99.90;;;;;;5012174;28;20313;-75
2022/12/22 08:16:11;;;;;;;6.30;4.03;;;12.70;99.90;;;;;;5010546;28;20738;-75
2022/12/22 08:18:37;;;;;;;5.82;4.72;;;12.70;99.90;;;;;;5010964;28;20237;-75
2022/12/22 08:21:04;;;;;;;5.32;4.20;;;12.70;99.90;;;;;;5011363;28;20609;-75
2022/12/22 08:23:31;;;;;;;5.40;4.30;;;12.70;99.90;;;;;;5010826;28;20171;-75
2022/12/22 08:26:29;;;;;;;5.45;4.95;;;12.70;99.90;;;;;;5010763;28;21212;-75
2022/12/22 08:29:04;;;;;;;6.60;4.97;;;12.80;99.90;;;;;;5010929;28;20232;-75
2022/12/22 08:31:31;;;;;;;6.03;4.78;;;12.80;99.90;;;;;;5009937;28;20186;-74
2022/12/22 08:34:01;;;;;;;4.78;4.30;;;12.80;99.90;;;;;;5010402;28;20187;-75
2022/12/22 08:36:28;;;;;;;5.95;5.05;;;12.80;99.90;;;;;;5011939;28;20178;-75
2022/12/22 08:38:55;;;;;;;8.00;5.80;;;12.80;99.90;;;;;;5010361;28;20237;-75
2022/12/22 08:45:10;;;;;;;7.13;6.13;;;12.80;99.90;;;;;;4997202;28;20676;-75
2022/12/22 08:47:35;;;;;;;6.13;4.97;;;12.80;99.90;;;;;;5011611;28;20573;-75
2022/12/22 08:50:01;;;;;;;6.13;5.53;;;12.80;99.90;;;;;;5010367;28;20605;-76
2022/12/22 08:52:27;;;;;;;7.73;6.90;;;12.80;99.90;;;;;;5009571;28;20637;-76
2022/12/22 08:54:53;;;;;;;5.83;5.23;;;12.80;99.90;;;;;;5010514;28;20658;-76
2022/12/22 08:57:18;;;;;;;7.37;6.63;;;12.80;99.90;;;;;;4977793;28;20588;-76
2022/12/22 08:59:46;;;;;;;6.83;6.13;;;12.80;99.90;;;;;;5010156;28;20205;-76
2022/12/22 09:02:12;;;;;;;7.70;5.93;;;12.80;99.90;;;;;;5010655;28;20550;-76
2022/12/22 09:04:38;;;;;;;7.70;6.87;;;12.80;99.90;;;;;;5011705;28;20615;-77
2022/12/22 09:07:04;;;;;;;6.30;5.70;;;12.80;99.90;;;;;;5011053;28;20585;-76
2022/12/22 09:09:31;;;;;;;8.98;8.07;;;12.80;99.90;;;;;;5009328;28;20739;-76
2022/12/22 09:11:57;;;;;;;8.17;7.37;;;12.80;99.90;;;;;;5010254;28;20210;-76
2022/12/22 09:14:23;;;;;;;8.20;7.17;;;12.90;99.90;;;;;;5012901;28;20643;-76
2022/12/22 09:16:49;;;;;;;8.77;7.87;;;12.90;99.90;;;;;;5009663;28;21040;-76
2022/12/22 09:19:15;;;;;;;9.40;8.50;;;13.00;99.90;;;;;;5009971;28;20198;-76
2022/12/22 09:21:41;;;;;;;9.03;8.13;;;13.00;99.90;;;;;;5010518;28;20582;-76
2022/12/22 09:24:07;;;;;;;9.97;8.97;;;13.00;99.90;;;;;;5010038;28;20185;-76
2022/12/22 09:26:33;;;;;;;8.80;7.90;;;13.00;99.90;;;;;;4993600;28;20174;-76
2022/12/22 09:28:58;;;;;;;11.80;8.53;;;13.00;99.90;;;;;;5009584;28;20585;-77
2022/12/22 09:31:25;;;;;;;10.63;9.53;;;13.00;99.90;;;;;;5018531;28;21215;-76
2022/12/22 09:33:53;;;;;;;10.80;9.47;;;13.00;99.90;;;;;;5015033;28;20193;-76
2022/12/22 09:36:30;;;;;;;10.67;9.40;;;13.00;99.90;;;;;;5010878;28;20920;-77
2022/12/22 09:39:02;;;;;;;9.83;8.83;;;13.00;99.90;;;;;;5011053;28;20699;-76
2022/12/22 09:41:36;;;;;;;10.50;9.40;;;13.00;99.90;;;;;;5009326;28;20589;-76
2022/12/22 09:44:12;;;;;;;9.40;8.23;;;13.00;99.90;;;;;;4993159;28;20644;-77
2022/12/22 09:46:39;;;;;;;9.60;8.70;;;13.00;99.90;;;;;;5010898;28;20584;-77
2022/12/22 09:49:05;;;;;;;8.90;8.00;;;13.00;99.90;;;;;;5011347;28;20647;-76
2022/12/22 09:51:39;;;;;;;11.30;10.10;;;13.00;99.90;;;;;;5014213;28;20593;-76
2022/12/22 09:54:04;;;;;;;11.40;9.47;;;13.00;99.90;;;;;;5011247;28;20576;-76
2022/12/22 09:56:30;;;;;;;9.60;8.60;;;13.00;99.90;;;;;;5009363;28;20581;-76
2022/12/22 09:58:57;;;;;;;11.57;10.17;;;13.00;99.90;;;;;;4993144;28;20300;-76
2022/12/22 10:01:37;;;;;;;11.47;9.07;;;13.00;99.90;;;;;;5009653;28;20621;-76
2022/12/22 10:04:43;;;;;;;9.70;8.80;;;13.00;99.90;;;;;;5009386;28;20639;-76
2022/12/22 10:07:33;;;;;;;10.45;9.43;;;13.00;99.90;;;;;;5010728;28;20589;-76
2022/12/22 10:10:23;;;;;;;10.60;9.50;;;13.10;99.90;;;;;;4994197;28;20252;-76
2022/12/22 10:12:50;;;;;;;10.93;9.70;;;13.10;99.90;;;;;;5010064;28;20585;-76
2022/12/22 10:15:16;;;;;;;9.90;8.87;;;13.10;99.90;;;;;;5009785;28;20585;-76
2022/12/22 10:17:42;;;;;;;12.43;10.30;;;13.10;99.90;;;;;;5008895;28;20622;-75
2022/12/22 10:20:24;;;;;;;12.73;10.93;;;13.10;99.90;;;;;;5012337;28;20195;-74
2022/12/22 10:22:58;;;;;;;12.37;10.90;;;13.20;99.90;;;;;;5011792;28;20178;-73
2022/12/22 10:25:31;;;;;;;18.13;12.30;;;13.20;99.90;;;;;;5013346;28;20576;-73
2022/12/22 10:27:59;;;;;;;17.77;13.03;;;13.20;99.90;;;;;;4996638;28;20600;-73
2022/12/22 10:30:28;;;;;;;16.60;12.47;;;13.20;99.90;;;;;;5013833;28;21006;-73
2022/12/22 10:33:07;;;;;;;13.70;11.30;;;13.20;99.90;;;;;;5012204;28;20703;-73
2022/12/22 10:35:52;;;;;;;14.95;11.18;;;13.20;99.90;;;;;;5012651;28;20601;-74
2022/12/22 10:38:29;;;;;;;13.93;10.50;;;13.10;99.90;;;;;;5014095;28;20585;-74
2022/12/22 10:41:23;;;;;;;12.82;11.40;;;13.10;99.90;;;;;;5011981;28;20190;-73
2022/12/22 10:44:31;;;;;;;14.07;11.03;;;13.10;99.90;;;;;;5010791;28;20206;-74
2022/12/22 10:46:59;;;;;;;14.40;12.50;;;13.10;99.90;;;;;;5004693;28;20592;-73
2022/12/22 10:49:32;;;;;;;13.02;11.20;;;13.10;99.90;;;;;;5013820;28;20596;-74
2022/12/22 10:52:14;;;;;;;12.73;10.63;;;13.10;99.90;;;;;;5011605;28;20174;-73
2022/12/22 10:54:42;;;;;;;13.02;10.95;;;13.10;99.90;;;;;;5012358;28;20597;-74
2022/12/22 10:57:15;;;;;;;11.35;9.50;;;13.10;99.90;;;;;;5012273;28;20202;-74
2022/12/22 11:00:20;;;;;;;12.70;11.20;;;13.10;99.90;;;;;;4995695;28;20693;-74
2022/12/22 11:02:51;;;;;;;12.93;10.80;;;13.10;99.90;;;;;;5011269;28;20592;-74
2022/12/22 11:05:17;;;;;;;13.13;10.83;;;13.10;99.90;;;;;;5012416;28;20539;-74
2022/12/22 11:07:46;;;;;;;15.83;11.13;;;13.20;99.90;;;;;;5012075;28;20587;-74
2022/12/22 11:10:16;;;;;;;12.50;10.30;;;13.30;99.90;;;;;;5011896;28;20601;-74
2022/12/22 11:12:53;;;;;;;12.10;10.40;;;13.40;99.90;;;;;;5011176;28;20582;-74
2022/12/22 11:15:44;;;;;;;12.50;11.17;;;13.50;99.90;;;;;;5012210;28;20573;-74
2022/12/22 11:18:29;;;;;;;14.33;11.70;;;13.60;99.90;;;;;;5011731;28;21105;-74
2022/12/22 11:21:20;;;;;;;19.70;11.77;;;13.60;99.90;;;;;;5012468;28;20615;-74
2022/12/22 11:24:30;;;;;;;10.50;9.40;;;13.70;99.90;;;;;;5011680;28;20573;-73
2022/12/22 11:27:32;;;;;;;17.77;13.73;;;13.70;99.90;;;;;;4999169;28;20584;-74
2022/12/22 11:30:07;;;;;;;23.93;13.37;;;13.70;99.90;;;;;;4951877;28;20627;-74
2022/12/22 11:32:45;;;;;;;14.10;11.93;;;13.70;99.90;;;;;;4982709;28;20588;-73
2022/12/22 11:35:17;;;;;;;11.77;10.27;;;13.70;99.90;;;;;;5011378;28;20672;-74
2022/12/22 11:37:55;;;;;;;14.50;10.00;;;13.70;99.90;;;;;;5013225;28;20557;-74
2022/12/22 11:40:47;;;;;;;11.20;9.20;;;13.70;99.90;;;;;;5012225;28;20664;-74
2022/12/22 11:43:34;;;;;;;15.80;9.80;;;13.70;99.90;;;;;;5011583;28;20643;-74
2022/12/22 11:46:43;;;;;;;12.83;9.00;;;13.70;99.90;;;;;;5012490;28;21191;-74
2022/12/22 11:49:24;;;;;;;11.43;9.63;;;13.70;99.90;;;;;;5013072;28;20585;-74
2022/12/22 11:52:27;;;;;;;10.93;8.50;;;13.70;99.90;;;;;;5010478;28;20589;-74
2022/12/22 11:55:02;;;;;;;15.27;11.10;;;13.70;99.90;;;;;;5011216;28;21132;-75
2022/12/22 11:57:49;;;;;;;13.50;11.07;;;13.60;99.90;;;;;;5012446;28;20635;-75
2022/12/22 12:00:17;;;;;;;13.93;10.27;;;13.60;99.90;;;;;;5011748;28;20671;-75
2022/12/22 12:03:17;;;;;;;13.40;10.20;;;13.60;99.90;;;;;;5011729;28;20582;-74
2022/12/22 12:06:02;;;;;;;12.73;9.60;;;13.60;99.90;;;;;;5013792;28;20603;-74
2022/12/22 12:08:50;;;;;;;16.10;10.77;;;13.50;99.90;;;;;;5011970;28;20592;-74
2022/12/22 12:11:42;;;;;;;15.87;11.07;;;13.50;99.90;;;;;;5012615;28;20617;-74
2022/12/22 12:14:33;;;;;;;13.57;10.80;;;13.40;99.90;;;;;;5012368;28;20644;-74
2022/12/22 12:17:07;;;;;;;11.60;9.20;;;13.40;99.90;;;;;;5010865;28;20650;-74
2022/12/22 12:20:14;;;;;;;11.68;8.80;;;13.40;99.90;;;;;;5011083;28;20656;-74
2022/12/22 12:22:55;;;;;;;15.63;10.18;;;13.30;99.90;;;;;;4953550;28;20702;-74
2022/12/22 12:25:38;;;;;;;21.83;15.07;;;13.30;99.90;;;;;;4990582;28;20232;-75
2022/12/22 12:28:28;;;;;;;17.40;11.93;;;13.30;99.90;;;;;;4994609;28;20612;-76
2022/12/22 12:30:59;;;;;;;19.77;11.33;;;13.30;99.90;;;;;;4993272;28;20683;-75
2022/12/22 12:33:45;;;;;;;13.23;10.50;;;13.30;99.90;;;;;;5017250;28;20588;-75
2022/12/22 12:36:28;;;;;;;14.30;11.83;;;13.30;99.90;;;;;;5030042;28;20216;-75
2022/12/22 12:39:10;;;;;;;11.77;8.90;;;13.50;99.90;;;;;;5031346;28;20635;-76
2022/12/22 12:41:44;;;;;;;12.77;8.03;;;13.50;99.90;;;;;;5030276;28;20577;-75
2022/12/22 12:44:13;;;;;;;9.70;6.97;;;13.60;99.90;;;;;;5013885;28;20609;-74
2022/12/22 12:46:58;;;;;;;6.63;5.00;;;13.60;99.90;;;;;;5027808;28;20591;-75
2022/12/22 12:49:33;;;;;;;8.03;6.40;;;13.60;99.90;;;;;;5011683;28;20703;-74
2022/12/22 12:52:01;;;;;;;9.00;7.27;;;13.60;99.90;;;;;;5008909;28;20687;-74
2022/12/22 12:54:48;;;;;;;6.97;6.03;;;13.60;99.90;;;;;;5010226;28;20589;-74
2022/12/22 12:57:50;;;;;;;12.70;6.03;;;13.60;99.90;;;;;;5009661;28;20961;-74
2022/12/22 13:00:42;;;;;;;8.70;6.15;;;13.70;99.90;;;;;;5011763;28;21261;-75
2022/12/22 13:03:32;;;;;;;8.10;7.00;;;13.70;99.90;;;;;;5011043;28;20277;-74
2022/12/22 13:06:01;;;;;;;10.50;6.70;;;13.70;99.90;;;;;;5009252;28;20704;-74
2022/12/22 13:08:28;;;;;;;9.80;6.53;;;13.70;99.90;;;;;;5007131;28;20609;-74
2022/12/22 13:10:54;;;;;;;10.53;7.60;;;13.70;99.90;;;;;;5009221;28;20653;-74
2022/12/22 13:13:26;;;;;;;10.70;8.30;;;13.70;99.90;;;;;;4993416;28;21191;-75
2022/12/22 13:16:01;;;;;;;7.47;6.30;;;13.70;99.90;;;;;;4993888;28;20551;-76
2022/12/22 13:18:29;;;;;;;15.13;10.43;;;13.70;99.90;;;;;;4994673;28;20629;-76
2022/12/22 13:20:57;;;;;;;8.68;6.82;;;13.70;99.90;;;;;;5008857;28;20644;-75
2022/12/22 13:23:28;;;;;;;10.30;5.80;;;13.70;99.90;;;;;;5011368;28;20171;-75
2022/12/22 13:26:01;;;;;;;6.90;5.60;;;13.70;99.90;;;;;;5009502;28;20640;-75
2022/12/22 13:28:28;;;;;;;8.13;6.17;;;13.70;99.90;;;;;;5011347;28;20581;-77
2022/12/22 13:31:04;;;;;;;8.77;7.00;;;13.70;99.90;;;;;;5009196;28;20624;-76
2022/12/22 13:33:36;;;;;;;7.53;5.90;;;13.70;99.90;;;;;;4995025;28;20605;-76
2022/12/22 13:36:03;;;;;;;6.10;4.93;;;13.70;99.90;;;;;;5009566;28;20595;-76
2022/12/22 13:38:32;;;;;;;5.47;4.27;;;13.70;99.90;;;;;;4992825;28;21003;-76
2022/12/22 13:41:02;;;;;;;4.90;3.80;;;13.80;99.90;;;;;;5009457;28;20657;-76
2022/12/22 13:43:29;;;;;;;4.67;3.80;;;13.80;99.90;;;;;;5009318;28;20585;-77
2022/12/22 13:46:01;;;;;;;4.40;4.00;;;13.80;99.90;;;;;;5009860;28;20586;-76
2022/12/22 13:48:40;;;;;;;4.23;3.03;;;13.80;99.90;;;;;;5009406;28;20668;-75
2022/12/22 13:51:12;;;;;;;4.17;3.70;;;13.80;99.90;;;;;;5010336;28;20624;-76
2022/12/22 13:53:43;;;;;;;4.53;3.77;;;13.90;99.90;;;;;;5009155;28;20689;-76
2022/12/22 13:56:38;;;;;;;4.83;3.23;;;13.90;99.90;;;;;;5013275;28;20647;-76
2022/12/22 13:59:15;;;;;;;4.67;3.70;;;13.90;99.90;;;;;;5014282;28;21110;-76
2022/12/22 14:01:56;;;;;;;5.13;4.50;;;14.00;99.90;;;;;;5014203;28;20585;-75
2022/12/22 14:04:21;;;;;;;6.30;5.20;;;14.00;99.90;;;;;;5013282;28;20620;-76
2022/12/22 14:06:47;;;;;;;5.70;5.00;;;14.00;99.90;;;;;;5014837;28;20611;-76
2022/12/22 14:09:22;;;;;;;5.73;5.00;;;14.10;99.90;;;;;;5014376;28;20237;-77
2022/12/22 14:12:02;;;;;;;6.77;4.23;;;14.10;99.90;;;;;;4996250;28;20184;-76
2022/12/22 14:14:36;;;;;;;5.07;4.10;;;14.10;99.90;;;;;;5014239;28;20599;-75
2022/12/22 14:17:02;;;;;;;6.33;4.63;;;14.20;99.90;;;;;;5013195;28;20592;-75
2022/12/22 14:19:34;;;;;;;6.37;4.43;;;14.20;99.90;;;;;;5013014;28;20694;-75
2022/12/22 14:22:12;;;;;;;6.40;5.30;;;14.20;99.90;;;;;;5013416;28;20597;-75
2022/12/22 14:24:53;;;;;;;6.00;4.63;;;14.20;99.90;;;;;;5014656;28;20888;-76
2022/12/22 14:27:43;;;;;;;4.97;4.10;;;14.10;99.90;;;;;;5012679;28;20573;-75
2022/12/22 14:30:24;;;;;;;5.33;4.70;;;14.10;99.90;;;;;;5013673;28;20716;-77
2022/12/22 14:32:56;;;;;;;4.40;3.70;;;14.10;99.90;;;;;;5012335;28;20963;-76
2022/12/22 14:35:24;;;;;;;6.60;4.50;;;14.10;99.90;;;;;;5013196;28;20592;-75
2022/12/22 14:37:53;;;;;;;6.87;3.80;;;14.00;99.90;;;;;;5012956;28;20977;-76
2022/12/22 14:40:38;;;;;;;5.80;3.57;;;14.00;99.90;;;;;;5029582;28;20958;-76
2022/12/22 14:43:20;;;;;;;4.93;3.40;;;14.00;99.90;;;;;;5013936;28;20592;-77
2022/12/22 14:45:48;;;;;;;4.30;3.27;;;14.00;99.90;;;;;;4980456;28;20623;-75
2022/12/22 14:48:25;;;;;;;4.93;2.53;;;13.90;99.90;;;;;;5013995;28;20616;-75
2022/12/22 14:50:52;;;;;;;4.50;2.50;;;13.90;99.90;;;;;;5013008;28;20621;-75
2022/12/22 14:53:35;;;;;;;3.83;2.63;;;13.80;99.90;;;;;;4996936;28;20577;-75
2022/12/22 14:56:09;;;;;;;3.77;2.20;;;13.70;99.90;;;;;;5013072;28;20581;-75
2022/12/22 14:58:39;;;;;;;3.40;2.30;;;13.70;99.90;;;;;;5012124;28;21043;-75
2022/12/22 15:01:18;;;;;;;3.20;1.93;;;13.60;99.90;;;;;;5013730;28;20629;-76
2022/12/22 15:04:05;;;;;;;2.87;2.07;;;13.50;99.90;;;;;;5011991;28;20596;-76
2022/12/22 15:06:35;;;;;;;4.13;2.37;;;13.50;99.90;;;;;;5011715;28;20580;-76
2022/12/22 15:09:05;;;;;;;3.77;2.57;;;13.40;99.90;;;;;;5012739;28;20596;-76
2022/12/22 15:11:33;;;;;;;2.97;2.20;;;13.40;99.90;;;;;;5012502;28;20584;-76
2022/12/22 15:14:00;;;;;;;3.17;2.17;;;13.30;99.90;;;;;;5012164;28;20585;-76
2022/12/22 15:16:27;;;;;;;2.80;2.17;;;13.30;99.90;;;;;;5012186;28;20658;-75
2022/12/22 15:18:52;;;;;;;5.30;4.80;;;13.30;99.90;;;;;;5011714;28;20710;-75
2022/12/22 15:21:20;;;;;;;6.60;3.77;;;13.30;99.90;;;;;;5011798;28;20625;-75
2022/12/22 15:23:46;;;;;;;4.70;3.80;;;13.30;99.90;;;;;;5011402;28;20633;-75
2022/12/22 15:26:12;;;;;;;4.10;3.50;;;13.20;99.90;;;;;;4991896;28;21090;-74
2022/12/22 15:28:38;;;;;;;4.80;3.90;;;13.20;99.90;;;;;;4996772;28;20179;-75
2022/12/22 15:31:11;;;;;;;4.73;3.60;;;13.10;99.90;;;;;;5010687;28;20648;-76
2022/12/22 15:33:37;;;;;;;6.23;4.37;;;13.10;99.90;;;;;;5011748;28;20273;-75
2022/12/22 15:36:04;;;;;;;7.07;5.13;;;13.00;99.90;;;;;;5027144;28;20780;-75
2022/12/22 15:38:30;;;;;;;7.43;5.15;;;13.00;99.90;;;;;;5009474;28;20225;-75
2022/12/22 15:40:55;;;;;;;8.23;5.73;;;13.00;99.90;;;;;;5009392;28;20241;-75
2022/12/22 15:43:21;;;;;;;6.93;6.00;;;13.00;99.90;;;;;;5010084;28;20170;-75
2022/12/22 15:45:47;;;;;;;6.37;5.53;;;13.00;99.90;;;;;;4994072;28;20257;-75
2022/12/22 15:48:22;;;;;;;7.32;6.63;;;13.00;99.90;;;;;;5010167;28;20232;-75
2022/12/22 15:50:48;;;;;;;8.43;6.13;;;13.00;99.90;;;;;;5026967;28;20233;-74
2022/12/22 15:53:19;;;;;;;7.37;6.50;;;13.00;99.90;;;;;;5009772;28;20590;-75
2022/12/22 15:55:48;;;;;;;6.70;5.33;;;13.00;99.90;;;;;;5010124;28;20732;-75
2022/12/22 15:58:20;;;;;;;5.80;4.97;;;13.00;99.90;;;;;;5011683;28;21335;-75
2022/12/22 16:00:46;;;;;;;8.00;4.77;;;13.00;99.90;;;;;;5026126;28;20927;-75
2022/12/22 16:03:12;;;;;;;9.70;7.70;;;13.00;99.90;;;;;;5009729;28;20577;-75
2022/12/22 16:05:39;;;;;;;10.10;7.30;;;13.10;99.90;;;;;;5009730;28;20632;-75
2022/12/22 16:08:13;;;;;;;4.93;4.33;;;13.00;99.90;;;;;;4993668;28;21157;-75
2022/12/22 16:10:39;;;;;;;5.30;4.60;;;13.10;99.90;;;;;;5010646;28;20609;-76
2022/12/22 16:13:09;;;;;;;5.70;3.57;;;13.00;99.90;;;;;;5009641;28;20589;-75
2022/12/22 16:15:34;;;;;;;3.00;2.70;;;13.10;99.90;;;;;;5010747;28;20577;-75
2022/12/22 16:18:01;;;;;;;3.10;2.50;;;13.00;99.90;;;;;;5010690;28;20588;-75
2022/12/22 16:20:29;;;;;;;3.50;2.50;;;13.00;99.90;;;;;;5010591;28;20606;-75
2022/12/22 16:22:56;;;;;;;2.47;2.13;;;13.10;99.90;;;;;;5009706;28;21164;-75
2022/12/22 16:25:26;;;;;;;4.27;2.20;;;13.00;99.90;;;;;;5009317;28;21161;-75
2022/12/22 16:27:53;;;;;;;2.93;1.73;;;13.00;99.90;;;;;;5010925;28;20648;-75
2022/12/22 16:30:22;;;;;;;3.17;1.50;;;13.00;99.90;;;;;;5010758;28;20632;-75
2022/12/22 16:32:48;;;;;;;2.70;1.77;;;13.00;99.90;;;;;;5008684;28;20615;-75
2022/12/22 16:35:19;;;;;;;3.50;1.70;;;13.00;99.90;;;;;;5010902;28;20604;-75
2022/12/22 16:37:47;;;;;;;2.40;1.30;;;13.00;99.90;;;;;;5009267;28;20696;-75
2022/12/22 16:40:14;;;;;;;2.20;1.50;;;13.00;99.90;;;;;;5010572;28;20687;-75
2022/12/22 16:42:50;;;;;;;2.90;1.63;;;12.90;99.90;;;;;;5008798;28;20644;-75
2022/12/22 16:45:27;;;;;;;1.83;1.10;;;12.90;99.90;;;;;;5010475;28;20672;-75
2022/12/22 16:47:58;;;;;;;4.23;1.20;;;12.90;99.90;;;;;;5008718;28;21022;-75
2022/12/22 16:50:31;;;;;;;1.70;0.90;;;13.00;99.90;;;;;;5008983;28;20617;-75
2022/12/22 16:53:02;;;;;;;2.67;1.10;;;13.00;99.90;;;;;;5008289;28;20178;-75